Time;durP1;ratioP1;P1;durP2;ratioP2;P2;SDS_P1;SDS_P2;PMS_P1;PMS_P2;Temp;Humidity;BMP_temperature;BMP_pressure;BME280_temperature;BME280_humidity;BME280_pressure;Samples;Min_cycle;Max_cycle;Signal;HPM_P1;HPM_P2
2023/05/13 00:01:50;;;;;;;15.02;8.85;;;;;;;;;;6207164;23;20028;-74
2023/05/13 00:04:17;;;;;;;13.90;7.90;;;;;;;;;;6208201;23;20445;-74
2023/05/13 00:06:51;;;;;;;14.23;8.15;;;;;;;;;;6207443;23;20099;-74
2023/05/13 00:09:18;;;;;;;16.75;8.15;;;;;;;;;;6209054;23;20025;-67
2023/05/13 00:11:45;;;;;;;17.33;7.85;;;;;;;;;;6206326;23;20108;-56
2023/05/13 00:14:25;;;;;;;14.27;8.68;;;;;;;;;;6206790;23;20525;-59
2023/05/13 00:17:03;;;;;;;10.40;7.50;;;;;;;;;;6207390;23;20025;-60
2023/05/13 00:19:37;;;;;;;12.93;8.07;;;;;;;;;;6205943;23;20054;-60
2023/05/13 00:22:04;;;;;;;16.80;7.55;;;;;;;;;;6208434;23;20020;-59
2023/05/13 00:24:31;;;;;;;10.27;7.13;;;;;;;;;;6207385;23;20055;-60
2023/05/13 00:27:05;;;;;;;17.15;7.50;;;;;;;;;;6207714;23;20103;-52
2023/05/13 00:29:32;;;;;;;13.50;7.63;;;;;;;;;;6207808;23;20021;-49
2023/05/13 00:32:06;;;;;;;14.70;8.15;;;;;;;;;;6207794;23;20135;-51
2023/05/13 00:34:33;;;;;;;14.02;8.63;;;;;;;;;;6207417;23;20104;-54
2023/05/13 00:37:00;;;;;;;14.65;8.27;;;;;;;;;;6206803;23;20052;-52
2023/05/13 00:39:34;;;;;;;12.00;8.18;;;;;;;;;;6207201;23;20561;-62
2023/05/13 00:42:03;;;;;;;29.77;8.23;;;;;;;;;;6207348;23;20044;-62
2023/05/13 00:44:37;;;;;;;15.23;8.00;;;;;;;;;;6206328;23;20078;-61
2023/05/13 00:47:04;;;;;;;;;;;;;;;;;;6208721;23;20354;-61
2023/05/13 00:49:32;;;;;;;14.05;8.27;;;;;;;;;;6207050;23;20303;-62
2023/05/13 00:52:06;;;;;;;14.65;7.90;;;;;;;;;;6206900;23;20052;-62
2023/05/13 00:54:33;;;;;;;14.40;8.30;;;;;;;;;;6208459;23;20099;-48
2023/05/13 00:57:01;;;;;;;15.00;8.20;;;;;;;;;;6205044;23;20764;-50
2023/05/13 00:59:35;;;;;;;11.43;8.32;;;;;;;;;;6208345;23;20449;-50
2023/05/13 01:02:04;;;;;;;;;;;;;;;;;;6206984;23;20029;-55
2023/05/13 01:04:59;;;;;;;10.85;7.93;;;;;;;;;;6208442;23;19935;-51
2023/05/13 01:07:34;;;;;;;15.40;9.18;;;;;;;;;;6208986;23;20027;-60
2023/05/13 01:10:18;;;;;;;13.95;8.05;;;;;;;;;;6208349;23;20024;-59
2023/05/13 01:12:45;;;;;;;15.82;8.20;;;;;;;;;;6209121;23;20031;-57
2023/05/13 01:15:32;;;;;;;17.83;8.68;;;;;;;;;;6208024;23;20047;-59
2023/05/13 01:18:06;;;;;;;15.55;7.97;;;;;;;;;;6207957;23;20099;-60
2023/05/13 01:20:41;;;;;;;20.08;8.88;;;;;;;;;;6208708;23;20099;-60
2023/05/13 01:23:14;;;;;;;13.07;8.43;;;;;;;;;;6209479;23;20027;-50
2023/05/13 01:25:49;;;;;;;11.23;7.93;;;;;;;;;;6209562;23;20099;-50
2023/05/13 01:28:16;;;;;;;12.23;8.10;;;;;;;;;;6208248;23;20031;-51
2023/05/13 01:30:44;;;;;;;13.82;8.32;;;;;;;;;;6208485;23;20509;-50
2023/05/13 01:33:25;;;;;;;15.40;8.20;;;;;;;;;;6208956;23;20016;-60
2023/05/13 01:35:52;;;;;;;12.90;8.38;;;;;;;;;;6209277;23;20044;-75
2023/05/13 01:38:26;;;;;;;13.32;8.38;;;;;;;;;;6208368;23;20108;-74
2023/05/13 01:40:54;;;;;;;12.95;8.93;;;;;;;;;;6208178;23;20095;-74
2023/05/13 01:43:21;;;;;;;11.88;9.38;;;;;;;;;;6208689;23;20031;-74
2023/05/13 01:45:59;;;;;;;12.85;8.60;;;;;;;;;;6208725;23;20103;-74
2023/05/13 01:48:26;;;;;;;18.73;8.68;;;;;;;;;;6209341;23;20044;-74
2023/05/13 01:50:57;;;;;;;16.05;8.40;;;;;;;;;;6209120;23;20411;-74
2023/05/13 01:53:31;;;;;;;10.55;7.97;;;;;;;;;;6209733;23;20104;-61
2023/05/13 01:55:58;;;;;;;13.82;8.88;;;;;;;;;;6209790;23;20099;-61
2023/05/13 01:58:32;;;;;;;14.93;8.70;;;;;;;;;;6209799;23;20446;-61
2023/05/13 02:00:59;;;;;;;14.07;8.77;;;;;;;;;;6208691;23;20059;-62
2023/05/13 02:03:27;;;;;;;14.63;9.32;;;;;;;;;;6208623;23;20112;-64
2023/05/13 02:06:01;;;;;;;14.68;9.25;;;;;;;;;;6209456;23;20023;-62
2023/05/13 02:08:29;;;;;;;12.40;9.60;;;;;;;;;;6208553;23;20785;-62
2023/05/13 02:11:03;;;;;;;13.63;9.57;;;;;;;;;;6209697;23;20027;-62
2023/05/13 02:13:30;;;;;;;12.13;8.82;;;;;;;;;;6209515;23;20078;-62
2023/05/13 02:15:57;;;;;;;14.85;9.63;;;;;;;;;;6204406;23;20052;-61
2023/05/13 02:18:31;;;;;;;16.52;9.38;;;;;;;;;;6209016;23;20087;-61
2023/05/13 02:20:58;;;;;;;12.05;9.40;;;;;;;;;;6208774;23;20032;-49
2023/05/13 02:23:32;;;;;;;14.63;9.20;;;;;;;;;;6207327;23;20095;-51
2023/05/13 02:25:59;;;;;;;11.00;8.27;;;;;;;;;;6208429;23;20025;-51
2023/05/13 02:28:26;;;;;;;15.27;8.80;;;;;;;;;;6208878;23;20115;-53
2023/05/13 02:31:00;;;;;;;19.85;7.78;;;;;;;;;;6207077;23;20027;-52
2023/05/13 02:33:27;;;;;;;15.55;8.35;;;;;;;;;;6208636;23;20055;-61
2023/05/13 02:36:01;;;;;;;15.52;9.10;;;;;;;;;;6207506;23;20052;-61
2023/05/13 02:38:28;;;;;;;16.90;8.32;;;;;;;;;;6208431;23;20028;-57
2023/05/13 02:40:55;;;;;;;15.25;9.35;;;;;;;;;;6209670;23;20116;-61
2023/05/13 02:43:29;;;;;;;18.58;9.55;;;;;;;;;;6207956;23;20026;-60
2023/05/13 02:45:56;;;;;;;12.02;8.25;;;;;;;;;;6208126;23;20020;-59
2023/05/13 02:48:30;;;;;;;14.43;8.68;;;;;;;;;;6209052;23;20024;-61
2023/05/13 02:50:57;;;;;;;16.20;9.65;;;;;;;;;;6208793;23;20104;-62
2023/05/13 02:53:24;;;;;;;13.27;8.50;;;;;;;;;;6207391;23;20111;-61
2023/05/13 02:55:58;;;;;;;16.05;9.30;;;;;;;;;;6208411;23;20095;-61
2023/05/13 02:58:25;;;;;;;13.63;8.32;;;;;;;;;;6208283;23;20047;-66
2023/05/13 03:00:52;;;;;;;12.75;8.55;;;;;;;;;;6208253;23;20023;-52
2023/05/13 03:03:26;;;;;;;14.65;9.50;;;;;;;;;;6207817;23;20029;-74
2023/05/13 03:05:53;;;;;;;13.15;9.27;;;;;;;;;;6207359;23;20024;-74
2023/05/13 03:08:27;;;;;;;12.40;8.48;;;;;;;;;;6206670;23;20051;-74
2023/05/13 03:10:54;;;;;;;13.18;9.02;;;;;;;;;;6207854;23;20107;-74
2023/05/13 03:13:21;;;;;;;14.32;9.10;;;;;;;;;;6207713;23;20469;-74
2023/05/13 03:16:01;;;;;;;14.57;9.13;;;;;;;;;;6206057;23;20044;-74
2023/05/13 03:18:31;;;;;;;14.95;8.98;;;;;;;;;;6208379;23;20027;-49
2023/05/13 03:21:05;;;;;;;16.65;9.93;;;;;;;;;;6207223;23;20024;-52
2023/05/13 03:23:33;;;;;;;16.77;9.20;;;;;;;;;;6207726;23;20031;-49
2023/05/13 03:26:01;;;;;;;15.23;9.20;;;;;;;;;;6207615;23;20558;-49
2023/05/13 03:28:35;;;;;;;14.23;8.98;;;;;;;;;;6208249;23;20034;-51
2023/05/13 03:31:02;;;;;;;15.90;9.77;;;;;;;;;;6207774;23;20029;-61
2023/05/13 03:33:29;;;;;;;16.38;10.60;;;;;;;;;;6208160;23;20039;-62
2023/05/13 03:36:04;;;;;;;21.42;10.77;;;;;;;;;;6206443;23;20020;-61
2023/05/13 03:38:32;;;;;;;20.23;10.52;;;;;;;;;;6208411;23;20217;-61
2023/05/13 03:41:06;;;;;;;14.60;10.13;;;;;;;;;;6208264;23;20100;-61
2023/05/13 03:43:33;;;;;;;17.42;9.63;;;;;;;;;;6207627;23;20103;-62
2023/05/13 03:46:00;;;;;;;16.38;10.43;;;;;;;;;;6207189;23;20016;-61
2023/05/13 03:48:34;;;;;;;18.45;9.70;;;;;;;;;;6205899;23;20549;-61
2023/05/13 03:51:01;;;;;;;17.08;10.35;;;;;;;;;;6207422;23;20538;-62
2023/05/13 03:53:35;;;;;;;14.32;9.68;;;;;;;;;;6206165;23;20370;-62
2023/05/13 03:56:02;;;;;;;18.25;9.90;;;;;;;;;;6207128;23;20020;-63
2023/05/13 03:58:29;;;;;;;14.30;9.13;;;;;;;;;;6207431;23;20112;-51
2023/05/13 04:01:03;;;;;;;12.70;8.70;;;;;;;;;;6207485;23;20039;-55
2023/05/13 04:03:30;;;;;;;16.80;8.52;;;;;;;;;;6207737;23;20115;-50
2023/05/13 04:06:04;;;;;;;11.02;8.40;;;;;;;;;;6207545;23;20020;-52
2023/05/13 04:08:31;;;;;;;11.05;8.00;;;;;;;;;;6207379;23;20054;-50
2023/05/13 04:10:58;;;;;;;11.95;8.30;;;;;;;;;;6208176;23;20533;-55
2023/05/13 04:13:35;;;;;;;11.32;8.15;;;;;;;;;;6209131;23;20037;-62
2023/05/13 04:16:09;;;;;;;12.00;8.48;;;;;;;;;;6207122;23;20608;-61
2023/05/13 04:18:50;;;;;;;15.70;8.50;;;;;;;;;;6206898;23;20025;-61
2023/05/13 04:21:17;;;;;;;13.45;8.48;;;;;;;;;;6207200;23;20536;-61
2023/05/13 04:23:51;;;;;;;19.40;9.35;;;;;;;;;;6207464;23;20100;-73
2023/05/13 04:26:19;;;;;;;14.40;9.30;;;;;;;;;;6208576;23;20091;-62
2023/05/13 04:28:46;;;;;;;11.40;8.13;;;;;;;;;;6204306;23;20522;-66
2023/05/13 04:31:20;;;;;;;12.57;8.15;;;;;;;;;;6206469;23;20095;-66
2023/05/13 04:33:47;;;;;;;10.07;8.10;;;;;;;;;;6207918;23;20028;-66
2023/05/13 04:36:21;;;;;;;11.23;7.60;;;;;;;;;;6208017;23;20047;-67
2023/05/13 04:38:48;;;;;;;12.85;8.10;;;;;;;;;;6206396;23;20545;-66
2023/05/13 04:41:15;;;;;;;15.70;7.80;;;;;;;;;;6209841;23;20024;-66
2023/05/13 04:43:49;;;;;;;14.27;7.60;;;;;;;;;;6209655;23;20031;-64
2023/05/13 04:46:16;;;;;;;16.17;7.68;;;;;;;;;;6209099;23;20533;-64
2023/05/13 04:48:50;;;;;;;16.85;7.55;;;;;;;;;;6208660;23;20028;-64
2023/05/13 04:51:17;;;;;;;;;;;;;;;;;;6210074;23;20341;-64
2023/05/13 04:53:45;;;;;;;12.80;7.70;;;;;;;;;;6208076;23;19959;-48
2023/05/13 04:56:21;;;;;;;14.82;7.10;;;;;;;;;;6210953;23;20060;-59
2023/05/13 04:58:48;;;;;;;18.73;7.25;;;;;;;;;;6207412;23;20353;-61
2023/05/13 05:01:22;;;;;;;17.55;7.07;;;;;;;;;;6208773;23;20476;-61
2023/05/13 05:03:49;;;;;;;11.23;6.78;;;;;;;;;;6209810;23;20035;-62
2023/05/13 05:06:16;;;;;;;11.45;6.85;;;;;;;;;;6208293;23;20024;-61
2023/05/13 05:08:50;;;;;;;11.55;7.43;;;;;;;;;;6208194;23;20496;-61
2023/05/13 05:11:17;;;;;;;8.25;6.53;;;;;;;;;;6209681;23;20074;-54
2023/05/13 05:13:44;;;;;;;15.45;6.47;;;;;;;;;;6208316;23;20017;-49
2023/05/13 05:16:25;;;;;;;12.30;6.30;;;;;;;;;;6208141;23;20107;-52
2023/05/13 05:18:52;;;;;;;10.93;6.80;;;;;;;;;;6207853;23;20020;-51
2023/05/13 05:21:26;;;;;;;14.68;6.75;;;;;;;;;;6207736;23;20021;-52
2023/05/13 05:23:53;;;;;;;14.43;6.35;;;;;;;;;;6209320;23;20389;-64
2023/05/13 05:26:21;;;;;;;15.10;5.93;;;;;;;;;;6209427;23;20021;-64
2023/05/13 05:28:55;;;;;;;8.02;6.22;;;;;;;;;;6207930;23;20099;-64
2023/05/13 05:31:22;;;;;;;11.70;6.00;;;;;;;;;;6209089;23;20039;-64
2023/05/13 05:33:56;;;;;;;16.77;6.55;;;;;;;;;;6206469;23;20024;-64
2023/05/13 05:36:23;;;;;;;8.63;6.53;;;;;;;;;;6207528;23;20405;-65
2023/05/13 05:38:57;;;;;;;10.18;5.88;;;;;;;;;;6208152;23;20059;-49
2023/05/13 05:41:24;;;;;;;10.07;6.50;;;;;;;;;;6210098;23;20039;-52
2023/05/13 05:43:51;;;;;;;13.63;5.72;;;;;;;;;;6207186;23;20070;-51
2023/05/13 05:46:25;;;;;;;12.18;6.25;;;;;;;;;;6209107;23;20103;-50
2023/05/13 05:48:52;;;;;;;9.93;5.78;;;;;;;;;;6208360;23;20025;-66
2023/05/13 05:51:19;;;;;;;8.95;5.38;;;;;;;;;;6209068;23;20024;-64
2023/05/13 05:53:53;;;;;;;15.18;5.63;;;;;;;;;;6208864;23;20059;-49
2023/05/13 05:56:21;;;;;;;12.20;5.55;;;;;;;;;;6180469;23;20078;-51
2023/05/13 05:58:50;;;;;;;16.40;6.18;;;;;;;;;;6201496;23;20351;-51
2023/05/13 06:01:35;;;;;;;7.60;5.38;;;;;;;;;;6202001;23;20100;-48
2023/05/13 06:04:04;;;;;;;9.52;5.20;;;;;;;;;;6205935;23;20394;-48
2023/05/13 06:06:41;;;;;;;10.10;5.20;;;;;;;;;;6205729;23;20032;-51
2023/05/13 06:09:09;;;;;;;8.07;5.40;;;;;;;;;;6206490;23;20064;-63
2023/05/13 06:11:36;;;;;;;9.52;5.47;;;;;;;;;;6209002;23;20056;-63
2023/05/13 06:14:10;;;;;;;12.63;4.82;;;;;;;;;;6208599;23;20024;-63
2023/05/13 06:16:43;;;;;;;13.18;5.65;;;;;;;;;;6208429;23;20052;-63
2023/05/13 06:19:26;;;;;;;10.75;5.22;;;;;;;;;;6209057;23;20095;-70
2023/05/13 06:21:53;;;;;;;10.45;4.88;;;;;;;;;;6208718;23;20051;-51
2023/05/13 06:24:30;;;;;;;13.88;5.15;;;;;;;;;;6207664;23;20038;-54
2023/05/13 06:27:03;;;;;;;10.70;5.32;;;;;;;;;;6208559;23;20613;-52
2023/05/13 06:29:30;;;;;;;9.52;4.88;;;;;;;;;;6209148;23;20032;-52
2023/05/13 06:32:04;;;;;;;7.88;4.90;;;;;;;;;;6208076;23;20064;-49
2023/05/13 06:34:44;;;;;;;8.05;4.95;;;;;;;;;;6208591;23;20024;-50
2023/05/13 06:37:12;;;;;;;9.18;4.85;;;;;;;;;;6209699;23;20099;-50
2023/05/13 06:39:46;;;;;;;12.52;4.63;;;;;;;;;;6204057;23;20078;-49
2023/05/13 06:42:13;;;;;;;11.20;4.50;;;;;;;;;;6204948;23;20095;-49
2023/05/13 06:44:47;;;;;;;9.95;4.78;;;;;;;;;;6207111;23;20028;-50
2023/05/13 06:47:15;;;;;;;6.45;3.90;;;;;;;;;;6207817;23;20091;-51
2023/05/13 06:49:42;;;;;;;5.90;4.22;;;;;;;;;;6205266;23;20030;-48
2023/05/13 06:52:16;;;;;;;10.15;4.35;;;;;;;;;;6206138;23;20024;-51
2023/05/13 06:54:43;;;;;;;;;;;;;;;;;;6181343;23;20024;-50
2023/05/13 06:57:17;;;;;;;10.15;4.35;;;;;;;;;;6204338;23;20416;-48
2023/05/13 06:59:45;;;;;;;5.32;4.00;;;;;;;;;;6180658;23;20267;-51
2023/05/13 07:02:13;;;;;;;7.82;4.55;;;;;;;;;;6205178;23;20036;-50
2023/05/13 07:04:49;;;;;;;8.85;4.22;;;;;;;;;;6206075;23;20059;-53
2023/05/13 07:07:16;;;;;;;6.22;4.35;;;;;;;;;;6207497;23;20557;-58
2023/05/13 07:09:50;;;;;;;7.40;4.00;;;;;;;;;;6207032;23;20078;-65
2023/05/13 07:12:17;;;;;;;6.45;4.25;;;;;;;;;;6207683;23;20139;-65
2023/05/13 07:14:44;;;;;;;10.65;4.20;;;;;;;;;;6206721;23;20021;-65
2023/05/13 07:17:25;;;;;;;8.32;3.38;;;;;;;;;;6206414;23;20024;-65
2023/05/13 07:19:52;;;;;;;11.65;3.80;;;;;;;;;;6205466;23;20095;-65
2023/05/13 07:22:27;;;;;;;8.85;4.03;;;;;;;;;;6209254;23;20048;-65
2023/05/13 07:24:54;;;;;;;5.57;3.80;;;;;;;;;;6207671;23;20044;-64
2023/05/13 07:27:21;;;;;;;8.70;3.70;;;;;;;;;;6206737;23;20645;-64
2023/05/13 07:29:55;;;;;;;9.68;3.95;;;;;;;;;;6207107;23;20396;-65
2023/05/13 07:32:22;;;;;;;6.57;3.30;;;;;;;;;;6208062;23;20103;-64
2023/05/13 07:34:56;;;;;;;5.47;3.53;;;;;;;;;;6206790;23;20024;-49
2023/05/13 07:37:23;;;;;;;5.20;4.07;;;;;;;;;;6206418;23;20095;-64
2023/05/13 07:39:51;;;;;;;6.68;3.55;;;;;;;;;;6206591;23;20108;-65
2023/05/13 07:42:26;;;;;;;7.00;3.72;;;;;;;;;;6205075;23;20035;-64
2023/05/13 07:44:53;;;;;;;6.63;3.40;;;;;;;;;;6206146;23;20021;-64
2023/05/13 07:47:27;;;;;;;4.22;3.10;;;;;;;;;;6207876;23;20036;-64
2023/05/13 07:49:55;;;;;;;6.95;3.30;;;;;;;;;;6204216;23;20020;-65
2023/05/13 07:52:22;;;;;;;10.95;3.90;;;;;;;;;;6205978;23;20036;-49
2023/05/13 07:54:57;;;;;;;12.68;3.30;;;;;;;;;;6205678;23;20083;-49
2023/05/13 07:57:25;;;;;;;8.88;3.58;;;;;;;;;;6205336;23;20020;-46
2023/05/13 07:59:59;;;;;;;4.95;3.17;;;;;;;;;;6206669;23;20020;-50
2023/05/13 08:02:26;;;;;;;;;;;;;;;;;;6205338;23;20616;-62
2023/05/13 08:04:54;;;;;;;7.53;3.17;;;;;;;;;;6206691;23;19919;-61
2023/05/13 08:07:28;;;;;;;9.32;3.63;;;;;;;;;;6205662;23;20028;-61
2023/05/13 08:09:55;;;;;;;19.08;3.42;;;;;;;;;;6207890;23;20048;-62
2023/05/13 08:12:29;;;;;;;9.32;3.40;;;;;;;;;;6209141;23;20505;-62
2023/05/13 08:14:56;;;;;;;9.70;2.65;;;;;;;;;;6208866;23;20048;-62
2023/05/13 08:17:23;;;;;;;7.43;3.00;;;;;;;;;;6206944;23;20020;-62
2023/05/13 08:19:57;;;;;;;5.13;2.97;;;;;;;;;;6209565;23;20021;-65
2023/05/13 08:22:26;;;;;;;8.25;3.70;;;;;;;;;;6209473;23;20036;-64
2023/05/13 08:24:53;;;;;;;6.15;2.65;;;;;;;;;;6206430;23;20059;-64
2023/05/13 08:27:27;;;;;;;4.40;2.90;;;;;;;;;;6208572;23;20029;-64
2023/05/13 08:29:54;;;;;;;8.18;3.38;;;;;;;;;;6208195;23;20099;-47
2023/05/13 08:32:21;;;;;;;11.98;3.63;;;;;;;;;;6208207;23;20060;-67
2023/05/13 08:34:55;;;;;;;7.65;3.17;;;;;;;;;;6208090;23;20044;-67
2023/05/13 08:37:29;;;;;;;5.32;2.95;;;;;;;;;;6208972;23;20058;-66
2023/05/13 08:39:58;;;;;;;7.45;3.70;;;;;;;;;;6208373;23;20542;-67
2023/05/13 08:42:32;;;;;;;6.28;3.50;;;;;;;;;;6207580;23;20104;-68
2023/05/13 08:45:04;;;;;;;5.85;3.17;;;;;;;;;;6210034;23;20108;-67
2023/05/13 08:47:44;;;;;;;10.45;3.25;;;;;;;;;;6208352;23;20028;-67
2023/05/13 08:50:12;;;;;;;9.38;3.20;;;;;;;;;;6207537;23;20529;-60
2023/05/13 08:52:46;;;;;;;9.43;3.88;;;;;;;;;;6208820;23;20056;-59
2023/05/13 08:55:21;;;;;;;6.22;3.47;;;;;;;;;;6209350;23;20025;-57
2023/05/13 08:57:48;;;;;;;7.20;4.05;;;;;;;;;;6205705;23;20020;-48
2023/05/13 09:00:24;;;;;;;9.02;3.60;;;;;;;;;;6206549;23;20031;-55
2023/05/13 09:02:51;;;;;;;5.22;3.60;;;;;;;;;;6205488;23;20176;-55
2023/05/13 09:05:25;;;;;;;5.55;3.75;;;;;;;;;;6207135;23;20035;-48
2023/05/13 09:07:53;;;;;;;9.40;4.00;;;;;;;;;;6209655;23;20024;-53
2023/05/13 09:10:21;;;;;;;9.18;3.00;;;;;;;;;;6207638;23;20021;-50
2023/05/13 09:12:54;;;;;;;9.40;3.28;;;;;;;;;;6206540;23;20099;-51
2023/05/13 09:15:23;;;;;;;7.18;3.35;;;;;;;;;;6209442;23;20406;-49
2023/05/13 09:18:06;;;;;;;9.93;3.47;;;;;;;;;;6210418;23;20054;-54
2023/05/13 09:20:35;;;;;;;14.18;3.20;;;;;;;;;;6209632;23;20116;-54
2023/05/13 09:23:10;;;;;;;5.35;2.90;;;;;;;;;;6209404;23;20025;-51
2023/05/13 09:25:38;;;;;;;14.88;3.50;;;;;;;;;;6208575;23;20541;-54
2023/05/13 09:28:07;;;;;;;6.72;3.35;;;;;;;;;;6209508;23;20031;-61
2023/05/13 09:30:40;;;;;;;8.38;3.53;;;;;;;;;;6209357;23;20476;-67
2023/05/13 09:33:15;;;;;;;10.15;3.47;;;;;;;;;;6208415;23;20420;-67
2023/05/13 09:35:51;;;;;;;7.40;3.35;;;;;;;;;;6207267;23;20103;-67
2023/05/13 09:38:20;;;;;;;6.35;3.05;;;;;;;;;;6208299;23;20016;-67
2023/05/13 09:40:54;;;;;;;8.10;3.47;;;;;;;;;;6207268;23;20103;-67
2023/05/13 09:43:22;;;;;;;6.40;3.40;;;;;;;;;;6207578;23;20020;-67
2023/05/13 09:46:03;;;;;;;6.13;2.95;;;;;;;;;;6208575;23;20055;-52
2023/05/13 09:48:31;;;;;;;5.53;2.88;;;;;;;;;;6204405;23;20490;-52
2023/05/13 09:51:05;;;;;;;7.70;3.25;;;;;;;;;;6208163;23;20421;-54
2023/05/13 09:53:32;;;;;;;7.07;3.38;;;;;;;;;;6205662;23;20025;-51
2023/05/13 09:56:00;;;;;;;5.03;3.25;;;;;;;;;;6205848;23;20350;-67
2023/05/13 09:58:34;;;;;;;4.53;2.83;;;;;;;;;;6207869;23;20021;-67
2023/05/13 10:01:02;;;;;;;7.05;3.13;;;;;;;;;;6207891;23;20028;-67
2023/05/13 10:03:36;;;;;;;6.60;3.35;;;;;;;;;;6206251;23;20024;-67
2023/05/13 10:06:03;;;;;;;;;;;;;;;;;;6207694;23;20094;-67
2023/05/13 10:08:30;;;;;;;5.45;3.10;;;;;;;;;;6206833;23;20323;-67
2023/05/13 10:11:06;;;;;;;7.18;3.47;;;;;;;;;;6206981;23;20021;-67
2023/05/13 10:13:33;;;;;;;6.57;3.00;;;;;;;;;;6208230;23;20369;-54
2023/05/13 10:16:21;;;;;;;5.10;3.22;;;;;;;;;;6207759;23;20021;-53
2023/05/13 10:18:56;;;;;;;9.80;3.60;;;;;;;;;;6206739;23;20051;-49
2023/05/13 10:21:31;;;;;;;8.23;3.13;;;;;;;;;;6208248;23;20020;-52
2023/05/13 10:23:58;;;;;;;7.07;3.25;;;;;;;;;;6208795;23;20028;-61
2023/05/13 10:26:26;;;;;;;7.38;3.22;;;;;;;;;;6207777;23;20099;-59
2023/05/13 10:28:59;;;;;;;11.05;3.60;;;;;;;;;;6207289;23;20028;-64
2023/05/13 10:31:26;;;;;;;6.72;3.25;;;;;;;;;;6207663;23;20119;-64
2023/05/13 10:34:01;;;;;;;8.40;3.45;;;;;;;;;;6206799;23;20048;-65
2023/05/13 10:36:34;;;;;;;9.18;3.40;;;;;;;;;;6207868;23;20107;-64
2023/05/13 10:39:07;;;;;;;12.93;3.35;;;;;;;;;;6208990;23;20031;-64
2023/05/13 10:41:53;;;;;;;5.40;3.38;;;;;;;;;;6207624;23;20051;-52
2023/05/13 10:44:27;;;;;;;9.18;3.53;;;;;;;;;;6207178;23;20036;-48
2023/05/13 10:46:56;;;;;;;4.68;3.40;;;;;;;;;;6207875;23;20039;-50
2023/05/13 10:49:32;;;;;;;7.38;3.20;;;;;;;;;;6207207;23;20070;-53
2023/05/13 10:52:09;;;;;;;6.97;3.03;;;;;;;;;;6206734;23;20596;-50
2023/05/13 10:54:40;;;;;;;7.15;3.30;;;;;;;;;;6205560;23;20021;-58
2023/05/13 10:57:15;;;;;;;5.75;3.47;;;;;;;;;;6206349;23;20103;-64
2023/05/13 11:00:07;;;;;;;7.03;3.28;;;;;;;;;;6206820;23;20031;-64
2023/05/13 11:02:42;;;;;;;8.27;3.10;;;;;;;;;;6197299;23;20024;-64
2023/05/13 11:05:20;;;;;;;6.78;3.30;;;;;;;;;;6208097;23;20090;-63
2023/05/13 11:07:56;;;;;;;6.57;2.90;;;;;;;;;;6205761;23;20059;-65
2023/05/13 11:10:30;;;;;;;9.90;3.22;;;;;;;;;;6207264;23;20021;-53
2023/05/13 11:13:13;;;;;;;7.28;3.40;;;;;;;;;;6205682;23;20457;-50
2023/05/13 11:15:50;;;;;;;7.75;3.50;;;;;;;;;;6205141;23;20024;-54
2023/05/13 11:18:35;;;;;;;7.43;3.15;;;;;;;;;;6201472;23;20017;-48
2023/05/13 11:21:03;;;;;;;8.60;3.10;;;;;;;;;;6205304;23;20071;-66
2023/05/13 11:23:57;;;;;;;10.65;3.10;;;;;;;;;;6206885;23;20024;-62
2023/05/13 11:26:24;;;;;;;6.05;3.20;;;;;;;;;;6207669;23;20513;-61
2023/05/13 11:29:00;;;;;;;8.50;3.35;;;;;;;;;;6202840;23;20027;-61
2023/05/13 11:31:27;;;;;;;5.85;3.10;;;;;;;;;;6206288;23;20028;-60
2023/05/13 11:34:08;;;;;;;7.72;3.38;;;;;;;;;;6206056;23;20372;-61
2023/05/13 11:36:36;;;;;;;9.48;2.95;;;;;;;;;;6205841;23;20478;-61
2023/05/13 11:41:56;;;;;;;8.65;3.30;;;;;;;;;;6212174;22;20063;-83
2023/05/13 11:44:37;;;;;;;7.85;3.30;;;;;;;;;;6239778;23;20032;-83
2023/05/13 11:47:05;;;;;;;5.57;3.00;;;;;;;;;;6240234;23;20684;-83
2023/05/13 11:49:38;;;;;;;5.47;3.20;;;;;;;;;;6240150;23;20447;-84
2023/05/13 11:52:07;;;;;;;6.93;3.10;;;;;;;;;;6238954;23;20515;-85
2023/05/13 11:54:42;;;;;;;8.02;3.25;;;;;;;;;;6239703;23;20024;-84
2023/05/13 11:57:24;;;;;;;7.13;3.40;;;;;;;;;;6239410;23;20020;-84
2023/05/13 11:59:58;;;;;;;6.63;2.75;;;;;;;;;;6212360;23;20051;-83
2023/05/13 12:02:33;;;;;;;6.72;3.33;;;;;;;;;;6238582;23;20483;-82
2023/05/13 12:05:14;;;;;;;10.32;3.20;;;;;;;;;;6238387;23;20020;-82
2023/05/13 12:07:41;;;;;;;5.25;2.85;;;;;;;;;;6212747;23;20095;-83
2023/05/13 12:10:15;;;;;;;9.98;3.10;;;;;;;;;;6238188;23;20053;-85
2023/05/13 12:12:52;;;;;;;6.78;2.67;;;;;;;;;;6237948;23;20028;-82
2023/05/13 12:15:33;;;;;;;8.75;3.17;;;;;;;;;;6238715;23;20020;-86
2023/05/13 12:18:07;;;;;;;6.53;2.83;;;;;;;;;;6239837;23;20020;-84
2023/05/13 12:20:35;;;;;;;7.80;3.13;;;;;;;;;;6211950;23;20047;-85
2023/05/13 12:23:12;;;;;;;6.40;2.70;;;;;;;;;;6240098;23;20031;-82
2023/05/13 12:25:45;;;;;;;8.43;2.80;;;;;;;;;;6239451;23;20504;-82
2023/05/13 12:28:23;;;;;;;5.60;2.53;;;;;;;;;;6239966;22;20051;-84
2023/05/13 12:30:53;;;;;;;5.20;2.70;;;;;;;;;;6238994;23;20024;-85
2023/05/13 12:33:40;;;;;;;4.90;2.87;;;;;;;;;;6239529;23;20461;-85
2023/05/13 12:36:14;;;;;;;7.25;2.70;;;;;;;;;;6238190;23;20046;-84
2023/05/13 12:38:55;;;;;;;7.18;2.55;;;;;;;;;;6239048;23;20349;-83
2023/05/13 12:41:33;;;;;;;6.90;2.67;;;;;;;;;;6239900;23;20059;-83
2023/05/13 12:44:14;;;;;;;7.00;2.58;;;;;;;;;;6240128;23;20020;-83
2023/05/13 12:46:51;;;;;;;6.00;3.25;;;;;;;;;;6237926;23;20107;-84
2023/05/13 12:49:25;;;;;;;9.10;2.90;;;;;;;;;;6239191;23;20024;-86
2023/05/13 12:51:54;;;;;;;6.82;3.03;;;;;;;;;;6236700;23;20016;-86
2023/05/13 12:54:21;;;;;;;4.10;2.60;;;;;;;;;;6238384;23;20078;-86
2023/05/13 12:56:55;;;;;;;4.18;2.30;;;;;;;;;;6241147;23;20027;-85
2023/05/13 12:59:23;;;;;;;;;;;;;;;;;;6240471;23;20024;-85
2023/05/13 13:01:50;;;;;;;7.72;2.63;;;;;;;;;;6239269;23;20034;-85
2023/05/13 13:04:24;;;;;;;5.63;2.80;;;;;;;;;;6238450;22;20339;-85
2023/05/13 13:06:51;;;;;;;8.88;3.17;;;;;;;;;;6239988;23;20024;-86
2023/05/13 13:09:25;;;;;;;5.95;2.80;;;;;;;;;;6214783;23;20686;-85
2023/05/13 13:11:52;;;;;;;11.20;2.97;;;;;;;;;;6237092;23;20024;-85
2023/05/13 13:14:19;;;;;;;7.75;3.13;;;;;;;;;;6240083;23;20012;-84
2023/05/13 13:16:53;;;;;;;7.28;2.70;;;;;;;;;;6240913;23;20028;-84
2023/05/13 13:19:20;;;;;;;7.25;3.17;;;;;;;;;;6241192;23;20525;-83
2023/05/13 13:21:48;;;;;;;;;;;;;;;;;;6240153;23;20496;-82
2023/05/13 13:24:21;;;;;;;8.10;2.85;;;;;;;;;;6241107;23;19922;-85
2023/05/13 13:26:49;;;;;;;7.32;2.83;;;;;;;;;;6214532;22;20024;-84
2023/05/13 13:29:22;;;;;;;5.93;2.80;;;;;;;;;;6240519;23;20027;-84
2023/05/13 13:31:50;;;;;;;6.03;3.15;;;;;;;;;;6240902;23;20059;-84
2023/05/13 13:34:18;;;;;;;5.38;2.80;;;;;;;;;;6214544;23;20488;-83
2023/05/13 13:36:51;;;;;;;7.95;2.97;;;;;;;;;;6239265;23;20331;-85
2023/05/13 13:39:18;;;;;;;9.35;3.00;;;;;;;;;;6239800;23;20099;-84
2023/05/13 13:41:46;;;;;;;6.00;3.35;;;;;;;;;;6238461;22;20459;-85
2023/05/13 13:44:19;;;;;;;8.45;3.25;;;;;;;;;;6240212;23;20063;-84
2023/05/13 13:46:46;;;;;;;6.05;2.80;;;;;;;;;;6213200;23;20024;-85
2023/05/13 13:49:21;;;;;;;9.38;2.90;;;;;;;;;;6238920;23;20051;-85
2023/05/13 13:51:50;;;;;;;9.35;3.08;;;;;;;;;;6241284;23;20028;-81
2023/05/13 13:54:24;;;;;;;9.20;2.80;;;;;;;;;;6240567;23;20130;-84
2023/05/13 13:56:51;;;;;;;7.30;2.78;;;;;;;;;;6240866;23;20124;-84
2023/05/13 13:59:19;;;;;;;9.30;2.97;;;;;;;;;;6239140;23;20091;-84
2023/05/13 14:01:52;;;;;;;6.05;3.00;;;;;;;;;;6240304;23;20093;-83
2023/05/13 14:04:26;;;;;;;8.70;3.20;;;;;;;;;;6240397;22;20086;-84
2023/05/13 14:07:03;;;;;;;12.20;2.78;;;;;;;;;;6239340;23;20035;-84
2023/05/13 14:09:31;;;;;;;3.88;3.00;;;;;;;;;;6239976;23;20028;-85
2023/05/13 14:11:58;;;;;;;10.48;3.40;;;;;;;;;;6239525;23;20082;-84
2023/05/13 14:14:32;;;;;;;7.82;2.95;;;;;;;;;;6239949;23;20048;-83
2023/05/13 14:16:59;;;;;;;10.23;3.20;;;;;;;;;;6240125;23;20345;-84
2023/05/13 14:19:33;;;;;;;6.53;3.05;;;;;;;;;;6238691;23;20409;-83
2023/05/13 14:22:00;;;;;;;6.10;2.97;;;;;;;;;;6239333;23;20032;-85
2023/05/13 14:24:27;;;;;;;10.45;2.80;;;;;;;;;;6240522;23;20051;-84
2023/05/13 14:27:01;;;;;;;5.32;2.67;;;;;;;;;;6240595;22;20035;-83
2023/05/13 14:29:28;;;;;;;15.55;3.00;;;;;;;;;;6239782;23;20306;-84
2023/05/13 14:31:56;;;;;;;7.18;3.88;;;;;;;;;;6238950;23;20095;-84
2023/05/13 14:34:29;;;;;;;6.13;2.88;;;;;;;;;;6238998;23;20059;-82
2023/05/13 14:36:56;;;;;;;7.70;3.15;;;;;;;;;;6239814;23;20051;-83
2023/05/13 14:39:30;;;;;;;5.75;2.95;;;;;;;;;;6237892;23;20064;-82
2023/05/13 14:42:10;;;;;;;9.38;3.17;;;;;;;;;;6238116;23;20095;-85
2023/05/13 14:44:44;;;;;;;11.00;3.53;;;;;;;;;;6239554;23;20024;-86
2023/05/13 14:47:12;;;;;;;5.38;2.80;;;;;;;;;;6211100;23;20052;-84
2023/05/13 14:49:39;;;;;;;4.68;3.08;;;;;;;;;;6238696;23;20032;-82
2023/05/13 14:52:12;;;;;;;5.38;3.30;;;;;;;;;;6240920;23;20031;-83
2023/05/13 14:54:40;;;;;;;;;;;;;;;;;;6240224;23;20405;-83
2023/05/13 14:57:13;;;;;;;7.78;3.90;;;;;;;;;;6241083;23;19978;-82
2023/05/13 14:59:40;;;;;;;7.32;3.65;;;;;;;;;;6240484;23;20058;-84
2023/05/13 15:02:07;;;;;;;9.93;3.42;;;;;;;;;;6238935;22;20095;-85
2023/05/13 15:04:41;;;;;;;9.52;3.13;;;;;;;;;;6240032;23;20028;-84
2023/05/13 15:07:08;;;;;;;6.88;2.97;;;;;;;;;;6238271;23;20064;-83